sensor_id;sensor_type;location;lat;lon;timestamp;P1;durP1;ratioP1;P2;durP2;ratioP2
65477;SDS011;53678;39.642;22.430;2024-03-02T00:01:14;18.40;;;9.88;;
65477;SDS011;53678;39.642;22.430;2024-03-02T00:03:40;16.55;;;9.48;;
65477;SDS011;53678;39.642;22.430;2024-03-02T00:06:08;23.02;;;10.32;;
65477;SDS011;53678;39.642;22.430;2024-03-02T00:08:35;23.38;;;11.23;;
65477;SDS011;53678;39.642;22.430;2024-03-02T00:11:01;16.35;;;10.48;;
65477;SDS011;53678;39.642;22.430;2024-03-02T00:13:29;17.92;;;9.02;;
65477;SDS011;53678;39.642;22.430;2024-03-02T00:15:56;18.30;;;10.88;;
65477;SDS011;53678;39.642;22.430;2024-03-02T00:18:35;20.00;;;11.68;;
65477;SDS011;53678;39.642;22.430;2024-03-02T00:21:01;24.25;;;12.32;;
65477;SDS011;53678;39.642;22.430;2024-03-02T00:23:32;22.60;;;12.80;;
65477;SDS011;53678;39.642;22.430;2024-03-02T00:26:00;20.17;;;12.73;;
65477;SDS011;53678;39.642;22.430;2024-03-02T00:28:33;25.30;;;11.35;;
65477;SDS011;53678;39.642;22.430;2024-03-02T00:31:07;14.75;;;10.57;;
65477;SDS011;53678;39.642;22.430;2024-03-02T00:33:34;14.55;;;9.15;;
65477;SDS011;53678;39.642;22.430;2024-03-02T00:36:04;17.33;;;11.05;;
65477;SDS011;53678;39.642;22.430;2024-03-02T00:38:31;24.63;;;13.18;;
65477;SDS011;53678;39.642;22.430;2024-03-02T00:40:58;22.15;;;11.98;;
65477;SDS011;53678;39.642;22.430;2024-03-02T00:43:41;20.65;;;12.32;;
65477;SDS011;53678;39.642;22.430;2024-03-02T00:46:17;18.15;;;11.10;;
65477;SDS011;53678;39.642;22.430;2024-03-02T00:48:51;15.57;;;10.15;;
65477;SDS011;53678;39.642;22.430;2024-03-02T00:51:20;22.35;;;12.80;;
65477;SDS011;53678;39.642;22.430;2024-03-02T00:53:47;24.05;;;13.25;;
65477;SDS011;53678;39.642;22.430;2024-03-02T00:56:13;27.30;;;13.85;;
65477;SDS011;53678;39.642;22.430;2024-03-02T00:58:39;24.23;;;12.93;;
65477;SDS011;53678;39.642;22.430;2024-03-02T01:01:05;24.75;;;12.90;;
65477;SDS011;53678;39.642;22.430;2024-03-02T01:03:32;21.67;;;12.00;;
65477;SDS011;53678;39.642;22.430;2024-03-02T01:05:58;19.15;;;10.13;;
65477;SDS011;53678;39.642;22.430;2024-03-02T01:08:24;22.02;;;10.88;;
65477;SDS011;53678;39.642;22.430;2024-03-02T01:10:51;18.25;;;9.68;;
65477;SDS011;53678;39.642;22.430;2024-03-02T01:13:17;26.40;;;10.43;;
65477;SDS011;53678;39.642;22.430;2024-03-02T01:15:43;23.83;;;9.85;;
65477;SDS011;53678;39.642;22.430;2024-03-02T01:18:09;14.70;;;8.90;;
65477;SDS011;53678;39.642;22.430;2024-03-02T01:20:35;16.42;;;8.30;;
65477;SDS011;53678;39.642;22.430;2024-03-02T01:23:01;17.38;;;8.68;;
65477;SDS011;53678;39.642;22.430;2024-03-02T01:25:28;14.57;;;8.35;;
65477;SDS011;53678;39.642;22.430;2024-03-02T01:27:54;15.65;;;7.75;;
65477;SDS011;53678;39.642;22.430;2024-03-02T01:30:20;13.00;;;7.05;;
65477;SDS011;53678;39.642;22.430;2024-03-02T01:32:46;11.45;;;6.55;;
65477;SDS011;53678;39.642;22.430;2024-03-02T01:35:12;12.60;;;6.35;;
65477;SDS011;53678;39.642;22.430;2024-03-02T01:37:38;12.60;;;7.25;;
65477;SDS011;53678;39.642;22.430;2024-03-02T01:40:04;11.93;;;6.80;;
65477;SDS011;53678;39.642;22.430;2024-03-02T01:42:35;10.13;;;6.45;;
65477;SDS011;53678;39.642;22.430;2024-03-02T01:45:05;10.45;;;7.28;;
65477;SDS011;53678;39.642;22.430;2024-03-02T01:47:31;12.27;;;6.80;;
65477;SDS011;53678;39.642;22.430;2024-03-02T01:49:57;17.42;;;7.75;;
65477;SDS011;53678;39.642;22.430;2024-03-02T01:52:23;16.77;;;7.70;;
65477;SDS011;53678;39.642;22.430;2024-03-02T01:54:50;12.45;;;6.72;;
65477;SDS011;53678;39.642;22.430;2024-03-02T01:57:16;13.07;;;7.28;;
65477;SDS011;53678;39.642;22.430;2024-03-02T01:59:42;13.68;;;8.15;;
65477;SDS011;53678;39.642;22.430;2024-03-02T02:02:08;12.68;;;8.02;;
65477;SDS011;53678;39.642;22.430;2024-03-02T02:04:34;19.27;;;8.70;;
65477;SDS011;53678;39.642;22.430;2024-03-02T02:07:00;20.45;;;8.38;;
65477;SDS011;53678;39.642;22.430;2024-03-02T02:09:26;16.52;;;8.30;;
65477;SDS011;53678;39.642;22.430;2024-03-02T02:11:52;16.45;;;8.07;;
65477;SDS011;53678;39.642;22.430;2024-03-02T02:14:17;19.20;;;8.98;;
65477;SDS011;53678;39.642;22.430;2024-03-02T02:16:43;19.85;;;10.18;;
65477;SDS011;53678;39.642;22.430;2024-03-02T02:19:09;16.30;;;8.55;;
65477;SDS011;53678;39.642;22.430;2024-03-02T02:21:35;18.65;;;9.05;;
65477;SDS011;53678;39.642;22.430;2024-03-02T02:24:01;29.48;;;9.63;;
65477;SDS011;53678;39.642;22.430;2024-03-02T02:26:29;20.23;;;9.35;;
65477;SDS011;53678;39.642;22.430;2024-03-02T02:28:55;23.63;;;10.70;;
65477;SDS011;53678;39.642;22.430;2024-03-02T02:31:21;38.88;;;11.60;;
65477;SDS011;53678;39.642;22.430;2024-03-02T02:33:46;16.40;;;10.38;;
65477;SDS011;53678;39.642;22.430;2024-03-02T02:36:12;32.30;;;10.35;;
65477;SDS011;53678;39.642;22.430;2024-03-02T02:38:39;26.60;;;11.45;;
65477;SDS011;53678;39.642;22.430;2024-03-02T02:41:08;22.33;;;11.48;;
65477;SDS011;53678;39.642;22.430;2024-03-02T02:43:34;17.00;;;10.63;;
65477;SDS011;53678;39.642;22.430;2024-03-02T02:45:59;27.20;;;9.30;;
65477;SDS011;53678;39.642;22.430;2024-03-02T02:48:25;22.42;;;8.65;;
65477;SDS011;53678;39.642;22.430;2024-03-02T02:50:51;30.35;;;9.45;;
65477;SDS011;53678;39.642;22.430;2024-03-02T02:53:18;14.43;;;7.78;;
65477;SDS011;53678;39.642;22.430;2024-03-02T02:55:44;14.40;;;8.73;;
65477;SDS011;53678;39.642;22.430;2024-03-02T02:58:10;12.18;;;7.60;;
65477;SDS011;53678;39.642;22.430;2024-03-02T03:00:36;13.43;;;8.38;;
65477;SDS011;53678;39.642;22.430;2024-03-02T03:03:01;14.75;;;7.20;;
65477;SDS011;53678;39.642;22.430;2024-03-02T03:05:27;11.40;;;7.45;;
65477;SDS011;53678;39.642;22.430;2024-03-02T03:07:54;12.68;;;7.35;;
65477;SDS011;53678;39.642;22.430;2024-03-02T03:10:19;13.35;;;7.75;;
65477;SDS011;53678;39.642;22.430;2024-03-02T03:12:47;15.57;;;7.55;;
65477;SDS011;53678;39.642;22.430;2024-03-02T03:15:13;13.38;;;7.30;;
65477;SDS011;53678;39.642;22.430;2024-03-02T03:17:39;12.73;;;7.30;;
65477;SDS011;53678;39.642;22.430;2024-03-02T03:20:06;16.00;;;7.75;;
65477;SDS011;53678;39.642;22.430;2024-03-02T03:22:35;12.90;;;7.13;;
65477;SDS011;53678;39.642;22.430;2024-03-02T03:25:01;12.60;;;7.68;;
65477;SDS011;53678;39.642;22.430;2024-03-02T03:27:28;17.33;;;8.00;;
65477;SDS011;53678;39.642;22.430;2024-03-02T03:29:54;17.95;;;9.50;;
65477;SDS011;53678;39.642;22.430;2024-03-02T03:32:20;18.75;;;9.85;;
65477;SDS011;53678;39.642;22.430;2024-03-02T03:34:46;17.17;;;10.27;;
65477;SDS011;53678;39.642;22.430;2024-03-02T03:37:13;22.00;;;10.52;;
65477;SDS011;53678;39.642;22.430;2024-03-02T03:39:39;21.10;;;11.13;;
65477;SDS011;53678;39.642;22.430;2024-03-02T03:42:04;23.20;;;12.25;;
65477;SDS011;53678;39.642;22.430;2024-03-02T03:44:31;19.23;;;10.50;;
65477;SDS011;53678;39.642;22.430;2024-03-02T03:46:56;15.25;;;9.45;;
65477;SDS011;53678;39.642;22.430;2024-03-02T03:49:22;15.98;;;9.40;;
65477;SDS011;53678;39.642;22.430;2024-03-02T03:51:48;17.80;;;9.05;;
65477;SDS011;53678;39.642;22.430;2024-03-02T03:54:14;14.07;;;8.70;;
65477;SDS011;53678;39.642;22.430;2024-03-02T03:56:40;16.25;;;8.70;;
65477;SDS011;53678;39.642;22.430;2024-03-02T03:59:07;15.25;;;8.27;;
65477;SDS011;53678;39.642;22.430;2024-03-02T04:01:33;18.42;;;9.70;;
65477;SDS011;53678;39.642;22.430;2024-03-02T04:03:59;19.80;;;11.13;;
65477;SDS011;53678;39.642;22.430;2024-03-02T04:06:24;20.35;;;11.70;;
65477;SDS011;53678;39.642;22.430;2024-03-02T04:08:50;22.75;;;11.82;;
65477;SDS011;53678;39.642;22.430;2024-03-02T04:11:16;21.42;;;11.48;;
65477;SDS011;53678;39.642;22.430;2024-03-02T04:13:42;17.65;;;10.63;;
65477;SDS011;53678;39.642;22.430;2024-03-02T04:16:07;26.35;;;11.68;;
65477;SDS011;53678;39.642;22.430;2024-03-02T04:18:33;22.63;;;10.50;;
65477;SDS011;53678;39.642;22.430;2024-03-02T04:21:00;20.55;;;11.05;;
65477;SDS011;53678;39.642;22.430;2024-03-02T04:23:26;22.42;;;10.85;;
65477;SDS011;53678;39.642;22.430;2024-03-02T04:25:52;22.45;;;11.63;;
65477;SDS011;53678;39.642;22.430;2024-03-02T04:28:17;22.13;;;12.20;;
65477;SDS011;53678;39.642;22.430;2024-03-02T04:30:43;29.77;;;12.43;;
65477;SDS011;53678;39.642;22.430;2024-03-02T04:33:09;22.30;;;11.73;;
65477;SDS011;53678;39.642;22.430;2024-03-02T04:35:36;21.00;;;11.05;;
65477;SDS011;53678;39.642;22.430;2024-03-02T04:38:02;16.63;;;9.77;;
65477;SDS011;53678;39.642;22.430;2024-03-02T04:40:28;27.92;;;9.85;;
65477;SDS011;53678;39.642;22.430;2024-03-02T04:42:54;32.75;;;10.88;;
65477;SDS011;53678;39.642;22.430;2024-03-02T04:45:19;21.80;;;9.02;;
65477;SDS011;53678;39.642;22.430;2024-03-02T04:47:45;21.02;;;9.35;;
65477;SDS011;53678;39.642;22.430;2024-03-02T04:50:11;22.23;;;8.57;;
65477;SDS011;53678;39.642;22.430;2024-03-02T04:52:37;20.85;;;9.63;;
65477;SDS011;53678;39.642;22.430;2024-03-02T04:55:03;29.67;;;9.95;;
65477;SDS011;53678;39.642;22.430;2024-03-02T04:57:42;27.63;;;10.18;;
65477;SDS011;53678;39.642;22.430;2024-03-02T05:00:08;23.30;;;10.88;;
65477;SDS011;53678;39.642;22.430;2024-03-02T05:02:37;39.53;;;12.45;;
65477;SDS011;53678;39.642;22.430;2024-03-02T05:05:04;29.38;;;11.32;;
65477;SDS011;53678;39.642;22.430;2024-03-02T05:07:30;30.10;;;13.57;;
65477;SDS011;53678;39.642;22.430;2024-03-02T05:09:57;26.35;;;10.82;;
65477;SDS011;53678;39.642;22.430;2024-03-02T05:12:24;38.22;;;8.82;;
65477;SDS011;53678;39.642;22.430;2024-03-02T05:15:12;39.80;;;9.75;;
65477;SDS011;53678;39.642;22.430;2024-03-02T05:17:39;19.88;;;10.18;;
65477;SDS011;53678;39.642;22.430;2024-03-02T05:20:06;27.40;;;11.23;;
65477;SDS011;53678;39.642;22.430;2024-03-02T05:22:33;27.05;;;13.23;;
65477;SDS011;53678;39.642;22.430;2024-03-02T05:25:00;26.10;;;11.95;;
65477;SDS011;53678;39.642;22.430;2024-03-02T05:27:27;19.98;;;10.93;;
65477;SDS011;53678;39.642;22.430;2024-03-02T05:29:53;16.40;;;9.38;;
65477;SDS011;53678;39.642;22.430;2024-03-02T05:32:20;19.10;;;9.40;;
65477;SDS011;53678;39.642;22.430;2024-03-02T05:34:46;28.10;;;9.63;;
65477;SDS011;53678;39.642;22.430;2024-03-02T05:37:12;21.30;;;8.20;;
65477;SDS011;53678;39.642;22.430;2024-03-02T05:39:38;18.38;;;9.32;;
65477;SDS011;53678;39.642;22.430;2024-03-02T05:42:04;17.83;;;8.60;;
65477;SDS011;53678;39.642;22.430;2024-03-02T05:44:31;21.25;;;9.73;;
65477;SDS011;53678;39.642;22.430;2024-03-02T05:46:57;13.90;;;8.32;;
65477;SDS011;53678;39.642;22.430;2024-03-02T05:49:23;14.35;;;7.30;;
65477;SDS011;53678;39.642;22.430;2024-03-02T05:51:49;13.70;;;7.97;;
65477;SDS011;53678;39.642;22.430;2024-03-02T05:54:15;12.57;;;7.18;;
65477;SDS011;53678;39.642;22.430;2024-03-02T05:56:40;12.68;;;7.53;;
65477;SDS011;53678;39.642;22.430;2024-03-02T05:59:06;15.98;;;6.95;;
65477;SDS011;53678;39.642;22.430;2024-03-02T06:01:38;11.98;;;7.32;;
65477;SDS011;53678;39.642;22.430;2024-03-02T06:04:08;16.50;;;7.18;;
65477;SDS011;53678;39.642;22.430;2024-03-02T06:06:34;10.52;;;6.40;;
65477;SDS011;53678;39.642;22.430;2024-03-02T06:09:00;11.55;;;6.88;;
65477;SDS011;53678;39.642;22.430;2024-03-02T06:11:28;10.50;;;5.50;;
65477;SDS011;53678;39.642;22.430;2024-03-02T06:13:53;10.75;;;4.95;;
65477;SDS011;53678;39.642;22.430;2024-03-02T06:16:19;9.43;;;4.85;;
65477;SDS011;53678;39.642;22.430;2024-03-02T06:18:45;19.13;;;5.35;;
65477;SDS011;53678;39.642;22.430;2024-03-02T06:21:12;12.25;;;5.18;;
65477;SDS011;53678;39.642;22.430;2024-03-02T06:23:37;9.88;;;4.40;;
65477;SDS011;53678;39.642;22.430;2024-03-02T06:26:03;11.27;;;5.50;;
65477;SDS011;53678;39.642;22.430;2024-03-02T06:28:29;15.52;;;5.68;;
65477;SDS011;53678;39.642;22.430;2024-03-02T06:30:54;9.95;;;5.30;;
65477;SDS011;53678;39.642;22.430;2024-03-02T06:33:20;10.60;;;5.75;;
65477;SDS011;53678;39.642;22.430;2024-03-02T06:35:47;9.65;;;5.78;;
65477;SDS011;53678;39.642;22.430;2024-03-02T06:38:14;12.65;;;5.75;;
65477;SDS011;53678;39.642;22.430;2024-03-02T06:40:40;14.13;;;5.70;;
65477;SDS011;53678;39.642;22.430;2024-03-02T06:43:06;15.55;;;6.38;;
65477;SDS011;53678;39.642;22.430;2024-03-02T06:45:31;12.20;;;5.57;;
65477;SDS011;53678;39.642;22.430;2024-03-02T06:47:59;14.77;;;6.03;;
65477;SDS011;53678;39.642;22.430;2024-03-02T06:50:25;8.55;;;4.90;;
65477;SDS011;53678;39.642;22.430;2024-03-02T06:52:52;19.38;;;6.53;;
65477;SDS011;53678;39.642;22.430;2024-03-02T06:55:18;14.23;;;7.07;;
65477;SDS011;53678;39.642;22.430;2024-03-02T06:57:44;28.58;;;7.43;;
65477;SDS011;53678;39.642;22.430;2024-03-02T07:00:10;24.05;;;6.82;;
65477;SDS011;53678;39.642;22.430;2024-03-02T07:02:36;12.35;;;6.45;;
65477;SDS011;53678;39.642;22.430;2024-03-02T07:05:02;13.55;;;6.53;;
65477;SDS011;53678;39.642;22.430;2024-03-02T07:07:29;17.50;;;6.53;;
65477;SDS011;53678;39.642;22.430;2024-03-02T07:09:54;19.20;;;6.30;;
65477;SDS011;53678;39.642;22.430;2024-03-02T07:12:20;9.35;;;5.10;;
65477;SDS011;53678;39.642;22.430;2024-03-02T07:14:46;10.77;;;5.53;;
65477;SDS011;53678;39.642;22.430;2024-03-02T07:17:37;14.82;;;6.75;;
65477;SDS011;53678;39.642;22.430;2024-03-02T07:20:03;17.05;;;5.50;;
65477;SDS011;53678;39.642;22.430;2024-03-02T07:22:29;10.48;;;5.15;;
65477;SDS011;53678;39.642;22.430;2024-03-02T07:24:55;19.73;;;5.00;;
65477;SDS011;53678;39.642;22.430;2024-03-02T07:27:21;11.30;;;4.65;;
65477;SDS011;53678;39.642;22.430;2024-03-02T07:29:47;10.32;;;4.78;;
65477;SDS011;53678;39.642;22.430;2024-03-02T07:32:12;7.70;;;4.90;;
65477;SDS011;53678;39.642;22.430;2024-03-02T07:34:38;9.82;;;4.90;;
65477;SDS011;53678;39.642;22.430;2024-03-02T07:37:04;13.23;;;5.30;;
65477;SDS011;53678;39.642;22.430;2024-03-02T07:39:31;22.30;;;4.80;;
65477;SDS011;53678;39.642;22.430;2024-03-02T07:41:56;13.88;;;5.22;;
65477;SDS011;53678;39.642;22.430;2024-03-02T07:44:22;10.25;;;5.53;;
65477;SDS011;53678;39.642;22.430;2024-03-02T07:46:50;8.32;;;4.82;;
65477;SDS011;53678;39.642;22.430;2024-03-02T07:49:16;10.57;;;5.15;;
65477;SDS011;53678;39.642;22.430;2024-03-02T07:51:42;14.85;;;5.45;;
65477;SDS011;53678;39.642;22.430;2024-03-02T07:54:08;17.95;;;5.93;;
65477;SDS011;53678;39.642;22.430;2024-03-02T07:56:34;23.65;;;6.28;;
65477;SDS011;53678;39.642;22.430;2024-03-02T07:59:01;12.18;;;5.32;;
65477;SDS011;53678;39.642;22.430;2024-03-02T08:01:27;17.20;;;6.28;;
65477;SDS011;53678;39.642;22.430;2024-03-02T08:03:56;25.17;;;6.32;;
65477;SDS011;53678;39.642;22.430;2024-03-02T08:06:26;11.70;;;5.82;;
65477;SDS011;53678;39.642;22.430;2024-03-02T08:08:55;22.00;;;6.28;;
65477;SDS011;53678;39.642;22.430;2024-03-02T08:11:22;12.35;;;5.10;;
65477;SDS011;53678;39.642;22.430;2024-03-02T08:13:48;12.82;;;5.57;;
65477;SDS011;53678;39.642;22.430;2024-03-02T08:16:17;8.82;;;4.80;;
65477;SDS011;53678;39.642;22.430;2024-03-02T08:18:49;21.83;;;5.80;;
65477;SDS011;53678;39.642;22.430;2024-03-02T08:21:18;11.48;;;5.10;;
65477;SDS011;53678;39.642;22.430;2024-03-02T08:23:44;20.70;;;5.85;;
65477;SDS011;53678;39.642;22.430;2024-03-02T08:26:10;11.82;;;5.38;;
65477;SDS011;53678;39.642;22.430;2024-03-02T08:28:37;16.10;;;5.85;;
65477;SDS011;53678;39.642;22.430;2024-03-02T08:31:06;19.75;;;6.70;;
65477;SDS011;53678;39.642;22.430;2024-03-02T08:33:32;9.55;;;4.75;;
65477;SDS011;53678;39.642;22.430;2024-03-02T08:35:58;9.10;;;4.05;;
65477;SDS011;53678;39.642;22.430;2024-03-02T08:38:24;14.68;;;4.93;;
65477;SDS011;53678;39.642;22.430;2024-03-02T08:40:50;22.27;;;5.53;;
65477;SDS011;53678;39.642;22.430;2024-03-02T08:43:16;9.50;;;4.65;;
65477;SDS011;53678;39.642;22.430;2024-03-02T08:45:42;12.80;;;4.63;;
65477;SDS011;53678;39.642;22.430;2024-03-02T08:48:10;12.23;;;5.40;;
65477;SDS011;53678;39.642;22.430;2024-03-02T08:50:36;15.80;;;5.25;;
65477;SDS011;53678;39.642;22.430;2024-03-02T08:53:03;8.50;;;4.65;;
65477;SDS011;53678;39.642;22.430;2024-03-02T08:55:29;22.88;;;5.28;;
65477;SDS011;53678;39.642;22.430;2024-03-02T08:57:55;11.48;;;5.80;;
65477;SDS011;53678;39.642;22.430;2024-03-02T09:00:21;12.57;;;5.63;;
65477;SDS011;53678;39.642;22.430;2024-03-02T09:02:49;12.48;;;4.82;;
65477;SDS011;53678;39.642;22.430;2024-03-02T09:05:15;21.05;;;6.80;;
65477;SDS011;53678;39.642;22.430;2024-03-02T09:07:42;12.50;;;5.40;;
65477;SDS011;53678;39.642;22.430;2024-03-02T09:10:08;22.10;;;6.68;;
65477;SDS011;53678;39.642;22.430;2024-03-02T09:12:35;14.85;;;5.55;;
65477;SDS011;53678;39.642;22.430;2024-03-02T09:15:01;9.98;;;5.30;;
65477;SDS011;53678;39.642;22.430;2024-03-02T09:17:32;12.02;;;5.25;;
65477;SDS011;53678;39.642;22.430;2024-03-02T09:19:58;10.00;;;5.38;;
65477;SDS011;53678;39.642;22.430;2024-03-02T09:22:24;29.27;;;6.13;;
65477;SDS011;53678;39.642;22.430;2024-03-02T09:24:50;12.27;;;6.72;;
65477;SDS011;53678;39.642;22.430;2024-03-02T09:27:15;12.00;;;6.32;;
65477;SDS011;53678;39.642;22.430;2024-03-02T09:29:41;16.17;;;6.85;;
65477;SDS011;53678;39.642;22.430;2024-03-02T09:32:08;13.15;;;6.28;;
65477;SDS011;53678;39.642;22.430;2024-03-02T09:34:38;15.88;;;7.00;;
65477;SDS011;53678;39.642;22.430;2024-03-02T09:37:04;12.45;;;6.82;;
65477;SDS011;53678;39.642;22.430;2024-03-02T09:39:30;10.43;;;6.72;;
65477;SDS011;53678;39.642;22.430;2024-03-02T09:41:56;27.52;;;8.20;;
65477;SDS011;53678;39.642;22.430;2024-03-02T09:44:23;17.95;;;7.88;;
65477;SDS011;53678;39.642;22.430;2024-03-02T09:46:50;16.55;;;8.10;;
65477;SDS011;53678;39.642;22.430;2024-03-02T09:49:17;23.42;;;8.25;;
65477;SDS011;53678;39.642;22.430;2024-03-02T09:51:47;14.15;;;7.30;;
65477;SDS011;53678;39.642;22.430;2024-03-02T09:54:15;19.25;;;8.05;;
65477;SDS011;53678;39.642;22.430;2024-03-02T09:56:41;25.48;;;8.82;;
65477;SDS011;53678;39.642;22.430;2024-03-02T09:59:07;19.98;;;8.43;;
65477;SDS011;53678;39.642;22.430;2024-03-02T10:01:33;17.48;;;7.80;;
65477;SDS011;53678;39.642;22.430;2024-03-02T10:04:00;18.63;;;8.13;;
65477;SDS011;53678;39.642;22.430;2024-03-02T10:06:29;15.07;;;8.60;;
65477;SDS011;53678;39.642;22.430;2024-03-02T10:08:56;13.30;;;7.72;;
65477;SDS011;53678;39.642;22.430;2024-03-02T10:11:29;15.73;;;8.82;;
65477;SDS011;53678;39.642;22.430;2024-03-02T10:14:10;19.05;;;7.38;;
65477;SDS011;53678;39.642;22.430;2024-03-02T10:21:43;12.45;;;7.78;;
65477;SDS011;53678;39.642;22.430;2024-03-02T10:24:10;13.88;;;7.95;;
65477;SDS011;53678;39.642;22.430;2024-03-02T10:26:36;27.73;;;7.68;;
65477;SDS011;53678;39.642;22.430;2024-03-02T10:29:04;16.30;;;7.57;;
65477;SDS011;53678;39.642;22.430;2024-03-02T10:31:30;22.13;;;9.65;;
65477;SDS011;53678;39.642;22.430;2024-03-02T10:33:56;23.05;;;9.90;;
65477;SDS011;53678;39.642;22.430;2024-03-02T10:36:23;15.20;;;8.60;;
65477;SDS011;53678;39.642;22.430;2024-03-02T10:38:51;22.05;;;8.80;;
65477;SDS011;53678;39.642;22.430;2024-03-02T10:41:23;18.73;;;9.25;;
65477;SDS011;53678;39.642;22.430;2024-03-02T10:43:52;24.33;;;8.05;;
65477;SDS011;53678;39.642;22.430;2024-03-02T10:46:31;14.43;;;8.10;;
65477;SDS011;53678;39.642;22.430;2024-03-02T10:48:58;14.38;;;6.82;;
65477;SDS011;53678;39.642;22.430;2024-03-02T10:51:26;18.75;;;7.35;;
65477;SDS011;53678;39.642;22.430;2024-03-02T10:53:54;10.98;;;7.05;;
65477;SDS011;53678;39.642;22.430;2024-03-02T10:56:21;15.85;;;9.90;;
65477;SDS011;53678;39.642;22.430;2024-03-02T10:58:55;15.47;;;9.97;;
65477;SDS011;53678;39.642;22.430;2024-03-02T11:01:48;17.77;;;8.70;;
65477;SDS011;53678;39.642;22.430;2024-03-02T11:04:15;24.58;;;9.98;;
65477;SDS011;53678;39.642;22.430;2024-03-02T11:06:49;21.02;;;10.50;;
65477;SDS011;53678;39.642;22.430;2024-03-02T11:09:16;16.92;;;8.98;;
65477;SDS011;53678;39.642;22.430;2024-03-02T11:11:45;19.67;;;9.00;;
65477;SDS011;53678;39.642;22.430;2024-03-02T11:14:20;16.63;;;9.65;;
65477;SDS011;53678;39.642;22.430;2024-03-02T11:16:49;19.08;;;8.93;;
65477;SDS011;53678;39.642;22.430;2024-03-02T11:19:16;13.40;;;7.93;;
65477;SDS011;53678;39.642;22.430;2024-03-02T11:21:43;14.55;;;7.47;;
65477;SDS011;53678;39.642;22.430;2024-03-02T11:24:28;17.30;;;8.07;;
65477;SDS011;53678;39.642;22.430;2024-03-02T11:27:01;14.30;;;6.97;;
65477;SDS011;53678;39.642;22.430;2024-03-02T11:32:03;16.88;;;7.50;;
65477;SDS011;53678;39.642;22.430;2024-03-02T11:34:36;21.55;;;8.35;;
65477;SDS011;53678;39.642;22.430;2024-03-02T11:37:04;13.15;;;7.57;;
65477;SDS011;53678;39.642;22.430;2024-03-02T11:39:31;14.05;;;7.45;;
65477;SDS011;53678;39.642;22.430;2024-03-02T11:41:57;15.07;;;7.70;;
65477;SDS011;53678;39.642;22.430;2024-03-02T11:44:27;14.65;;;7.00;;
65477;SDS011;53678;39.642;22.430;2024-03-02T11:46:59;14.27;;;7.30;;
65477;SDS011;53678;39.642;22.430;2024-03-02T11:52:15;17.60;;;7.70;;
65477;SDS011;53678;39.642;22.430;2024-03-02T11:54:46;14.77;;;7.03;;
65477;SDS011;53678;39.642;22.430;2024-03-02T11:57:13;18.08;;;8.48;;
65477;SDS011;53678;39.642;22.430;2024-03-02T11:59:41;20.25;;;7.82;;
65477;SDS011;53678;39.642;22.430;2024-03-02T12:02:13;17.88;;;7.70;;
65477;SDS011;53678;39.642;22.430;2024-03-02T12:04:41;22.23;;;8.57;;
65477;SDS011;53678;39.642;22.430;2024-03-02T12:07:08;12.82;;;7.60;;
65477;SDS011;53678;39.642;22.430;2024-03-02T12:09:34;22.08;;;9.68;;
65477;SDS011;53678;39.642;22.430;2024-03-02T12:12:07;21.40;;;8.95;;
65477;SDS011;53678;39.642;22.430;2024-03-02T12:14:34;13.75;;;7.53;;
65477;SDS011;53678;39.642;22.430;2024-03-02T12:17:01;15.05;;;8.07;;
65477;SDS011;53678;39.642;22.430;2024-03-02T12:19:28;23.88;;;9.35;;
65477;SDS011;53678;39.642;22.430;2024-03-02T12:21:59;16.63;;;10.43;;
65477;SDS011;53678;39.642;22.430;2024-03-02T12:24:28;18.67;;;10.75;;
65477;SDS011;53678;39.642;22.430;2024-03-02T12:26:55;23.27;;;10.63;;
65477;SDS011;53678;39.642;22.430;2024-03-02T12:29:22;21.00;;;10.30;;
65477;SDS011;53678;39.642;22.430;2024-03-02T12:31:52;23.85;;;10.43;;
65477;SDS011;53678;39.642;22.430;2024-03-02T12:34:18;23.10;;;11.25;;
65477;SDS011;53678;39.642;22.430;2024-03-02T12:36:47;16.33;;;9.65;;
65477;SDS011;53678;39.642;22.430;2024-03-02T12:39:21;30.95;;;11.80;;
65477;SDS011;53678;39.642;22.430;2024-03-02T12:41:48;15.90;;;10.48;;
65477;SDS011;53678;39.642;22.430;2024-03-02T12:44:16;19.25;;;9.77;;
65477;SDS011;53678;39.642;22.430;2024-03-02T12:46:45;17.15;;;8.55;;
65477;SDS011;53678;39.642;22.430;2024-03-02T12:49:13;24.70;;;9.30;;
65477;SDS011;53678;39.642;22.430;2024-03-02T12:51:41;13.02;;;8.48;;
65477;SDS011;53678;39.642;22.430;2024-03-02T12:54:08;18.55;;;9.63;;
65477;SDS011;53678;39.642;22.430;2024-03-02T12:56:37;14.45;;;9.48;;
65477;SDS011;53678;39.642;22.430;2024-03-02T12:59:06;22.38;;;10.80;;
65477;SDS011;53678;39.642;22.430;2024-03-02T13:01:32;17.55;;;9.35;;
65477;SDS011;53678;39.642;22.430;2024-03-02T13:03:58;13.88;;;8.98;;
65477;SDS011;53678;39.642;22.430;2024-03-02T13:06:24;15.57;;;9.18;;
65477;SDS011;53678;39.642;22.430;2024-03-02T13:08:54;22.23;;;11.45;;
65477;SDS011;53678;39.642;22.430;2024-03-02T13:11:20;21.42;;;10.30;;
65477;SDS011;53678;39.642;22.430;2024-03-02T13:13:48;20.42;;;9.68;;
65477;SDS011;53678;39.642;22.430;2024-03-02T13:16:14;16.20;;;9.50;;
65477;SDS011;53678;39.642;22.430;2024-03-02T13:18:41;20.33;;;10.30;;
65477;SDS011;53678;39.642;22.430;2024-03-02T13:21:08;22.63;;;10.20;;
65477;SDS011;53678;39.642;22.430;2024-03-02T13:23:34;18.23;;;10.43;;
65477;SDS011;53678;39.642;22.430;2024-03-02T13:26:00;21.17;;;10.93;;
65477;SDS011;53678;39.642;22.430;2024-03-02T13:28:26;16.92;;;9.77;;
65477;SDS011;53678;39.642;22.430;2024-03-02T13:30:52;14.30;;;9.40;;
65477;SDS011;53678;39.642;22.430;2024-03-02T13:33:19;13.93;;;9.95;;
65477;SDS011;53678;39.642;22.430;2024-03-02T13:35:51;18.50;;;10.50;;
65477;SDS011;53678;39.642;22.430;2024-03-02T13:38:18;18.80;;;10.63;;
65477;SDS011;53678;39.642;22.430;2024-03-02T13:40:45;18.92;;;10.70;;
65477;SDS011;53678;39.642;22.430;2024-03-02T13:43:11;19.30;;;9.60;;
65477;SDS011;53678;39.642;22.430;2024-03-02T13:45:38;18.52;;;10.27;;
65477;SDS011;53678;39.642;22.430;2024-03-02T13:48:04;18.70;;;10.43;;
65477;SDS011;53678;39.642;22.430;2024-03-02T13:50:31;14.52;;;9.85;;
65477;SDS011;53678;39.642;22.430;2024-03-02T13:52:57;13.25;;;9.20;;
65477;SDS011;53678;39.642;22.430;2024-03-02T13:55:23;18.02;;;9.88;;
65477;SDS011;53678;39.642;22.430;2024-03-02T13:57:50;15.93;;;10.27;;
65477;SDS011;53678;39.642;22.430;2024-03-02T14:00:16;17.17;;;9.98;;
65477;SDS011;53678;39.642;22.430;2024-03-02T14:02:43;16.20;;;10.55;;
65477;SDS011;53678;39.642;22.430;2024-03-02T14:05:09;17.15;;;11.07;;
65477;SDS011;53678;39.642;22.430;2024-03-02T14:07:40;17.92;;;12.27;;
65477;SDS011;53678;39.642;22.430;2024-03-02T14:10:07;19.25;;;10.23;;
65477;SDS011;53678;39.642;22.430;2024-03-02T14:12:33;17.05;;;10.07;;
65477;SDS011;53678;39.642;22.430;2024-03-02T14:14:58;18.25;;;10.48;;
65477;SDS011;53678;39.642;22.430;2024-03-02T14:17:27;24.95;;;11.88;;
65477;SDS011;53678;39.642;22.430;2024-03-02T14:19:53;19.98;;;10.55;;
65477;SDS011;53678;39.642;22.430;2024-03-02T14:22:20;19.75;;;11.07;;
65477;SDS011;53678;39.642;22.430;2024-03-02T14:24:46;23.85;;;10.82;;
65477;SDS011;53678;39.642;22.430;2024-03-02T14:27:14;28.80;;;11.40;;
65477;SDS011;53678;39.642;22.430;2024-03-02T14:29:40;15.63;;;10.98;;